Time;durP1;ratioP1;P1;durP2;ratioP2;P2;SDS_P1;SDS_P2;PMS_P1;PMS_P2;Temp;Humidity;BMP_temperature;BMP_pressure;BME280_temperature;BME280_humidity;BME280_pressure;Samples;Min_cycle;Max_cycle;Signal;HPM_P1;HPM_P2
2023/04/19 00:00:37;;;;;;;0.00;0.00;;;9.70;95.10;;;;;;5101602;28;20668;-79
2023/04/19 00:03:04;;;;;;;0.10;0.10;;;9.70;95.10;;;;;;5102014;28;20122;-77
2023/04/19 00:05:30;;;;;;;0.10;0.10;;;9.60;95.20;;;;;;5099361;28;20105;-78
2023/04/19 00:07:56;;;;;;;0.95;0.88;;;9.60;95.40;;;;;;5100934;28;20027;-79
2023/04/19 00:10:22;;;;;;;0.20;0.20;;;9.60;95.40;;;;;;5097249;28;20051;-78
2023/04/19 00:12:47;;;;;;;0.35;0.35;;;9.50;95.50;;;;;;5093024;28;20078;-77
2023/04/19 00:15:13;;;;;;;0.17;0.17;;;9.50;95.70;;;;;;5103571;28;20036;-77
2023/04/19 00:17:39;;;;;;;0.10;0.10;;;9.50;95.70;;;;;;5102238;28;20020;-77
2023/04/19 00:20:05;;;;;;;0.10;0.10;;;9.50;95.70;;;;;;5103695;28;20164;-78
2023/04/19 00:22:31;;;;;;;0.20;0.20;;;9.50;95.70;;;;;;5101039;28;20028;-78
2023/04/19 00:24:56;;;;;;;0.22;0.22;;;9.50;95.60;;;;;;5098051;28;20036;-78
2023/04/19 00:27:22;;;;;;;0.10;0.10;;;9.50;95.50;;;;;;5102807;28;20031;-78
2023/04/19 00:29:48;;;;;;;0.50;0.50;;;9.50;95.60;;;;;;5102717;28;20024;-78
2023/04/19 00:32:14;;;;;;;0.32;0.32;;;9.50;95.40;;;;;;5096967;28;20053;-76
2023/04/19 00:34:40;;;;;;;0.17;0.17;;;9.50;95.30;;;;;;5102462;28;20027;-78
2023/04/19 00:37:07;;;;;;;0.22;0.22;;;9.50;95.20;;;;;;5102912;28;20032;-81
2023/04/19 00:39:33;;;;;;;0.10;0.10;;;9.60;95.00;;;;;;5101174;28;20112;-78
2023/04/19 00:41:58;;;;;;;0.20;0.20;;;9.50;94.90;;;;;;5102716;28;20115;-77
2023/04/19 00:44:24;;;;;;;0.10;0.10;;;9.50;94.80;;;;;;5102696;28;20055;-77
2023/04/19 00:46:50;;;;;;;0.10;0.10;;;9.50;94.80;;;;;;5102789;28;20536;-77
2023/04/19 00:49:19;;;;;;;0.20;0.20;;;9.60;94.60;;;;;;5101913;28;20055;-80
2023/04/19 00:51:46;;;;;;;0.40;0.40;;;9.60;94.50;;;;;;5102263;28;20398;-77
2023/04/19 00:54:13;;;;;;;0.30;0.30;;;9.60;94.40;;;;;;5102063;28;20498;-77
2023/04/19 00:56:39;;;;;;;0.47;0.47;;;9.50;94.20;;;;;;5097000;28;20024;-77
2023/04/19 00:59:05;;;;;;;0.03;0.03;;;9.50;94.30;;;;;;5101431;28;20112;-79
2023/04/19 01:01:32;;;;;;;0.47;0.47;;;9.40;94.20;;;;;;5102601;28;20039;-78
2023/04/19 01:04:00;;;;;;;2.25;0.60;;;9.50;94.00;;;;;;5101997;28;20034;-78
2023/04/19 01:06:27;;;;;;;0.60;0.60;;;9.40;94.10;;;;;;5101384;28;20396;-80
2023/04/19 01:08:53;;;;;;;0.40;0.40;;;9.40;94.10;;;;;;5084090;28;20114;-77
2023/04/19 01:11:18;;;;;;;1.37;0.40;;;9.40;94.00;;;;;;5083332;28;20109;-77
2023/04/19 01:13:44;;;;;;;2.28;0.52;;;9.40;94.00;;;;;;5097707;28;20106;-77
2023/04/19 01:16:10;;;;;;;0.20;0.20;;;9.30;93.90;;;;;;5099048;28;20554;-77
2023/04/19 01:18:38;;;;;;;0.10;0.10;;;9.30;93.80;;;;;;5095266;28;20032;-79
2023/04/19 01:21:04;;;;;;;0.25;0.25;;;9.30;93.70;;;;;;5107992;28;20173;-77
2023/04/19 01:23:29;;;;;;;0.43;0.43;;;9.30;93.70;;;;;;5086227;28;20530;-77
2023/04/19 01:25:55;;;;;;;0.10;0.10;;;9.30;93.80;;;;;;5080397;28;20024;-79
2023/04/19 01:28:21;;;;;;;0.10;0.10;;;9.20;93.90;;;;;;5103268;27;20019;-79
2023/04/19 01:30:49;;;;;;;0.40;0.40;;;9.30;93.90;;;;;;5099961;28;20043;-79
2023/04/19 01:33:16;;;;;;;0.10;0.10;;;9.10;94.10;;;;;;5082467;28;20050;-79
2023/04/19 01:35:41;;;;;;;0.20;0.20;;;9.10;94.30;;;;;;5101688;28;20166;-79
2023/04/19 01:38:07;;;;;;;0.10;0.10;;;9.10;94.30;;;;;;5096749;28;20657;-77
2023/04/19 01:40:33;;;;;;;0.57;0.55;;;9.00;94.30;;;;;;5105875;28;20130;-77
2023/04/19 01:42:58;;;;;;;0.32;0.32;;;9.00;94.40;;;;;;5105838;28;20085;-77
2023/04/19 01:45:24;;;;;;;0.10;0.10;;;9.00;94.50;;;;;;5109936;27;20029;-78
2023/04/19 01:47:50;;;;;;;0.10;0.10;;;9.10;94.40;;;;;;5105177;28;20024;-78
2023/04/19 01:50:16;;;;;;;0.25;0.25;;;9.10;94.30;;;;;;5080769;28;20031;-79
2023/04/19 01:52:42;;;;;;;0.10;0.10;;;9.10;94.30;;;;;;5088607;28;20089;-78
2023/04/19 01:55:08;;;;;;;0.25;0.25;;;9.00;94.40;;;;;;5105320;28;20081;-79
2023/04/19 01:57:33;;;;;;;0.10;0.10;;;8.90;94.60;;;;;;5105586;28;20187;-78
2023/04/19 02:00:00;;;;;;;0.10;0.10;;;8.90;94.80;;;;;;5104382;28;20135;-78
2023/04/19 02:02:26;;;;;;;0.10;0.10;;;8.90;94.60;;;;;;5086588;28;20084;-81
2023/04/19 02:04:51;;;;;;;0.10;0.10;;;9.00;94.50;;;;;;5104880;28;20035;-79
2023/04/19 02:07:17;;;;;;;0.20;0.20;;;9.00;94.30;;;;;;5102853;27;20082;-78
2023/04/19 02:09:43;;;;;;;0.68;0.68;;;9.00;94.50;;;;;;5104128;28;20028;-79
2023/04/19 02:12:08;;;;;;;3.22;0.40;;;8.80;94.80;;;;;;5086326;28;20039;-78
2023/04/19 02:14:34;;;;;;;0.20;0.20;;;8.80;95.10;;;;;;5086315;28;20043;-78
2023/04/19 02:17:00;;;;;;;0.20;0.20;;;8.70;95.20;;;;;;5074221;28;20047;-78
2023/04/19 02:19:26;;;;;;;0.35;0.35;;;8.70;95.30;;;;;;5103385;27;21850;-80
2023/04/19 02:21:56;;;;;;;0.13;0.13;;;8.70;95.40;;;;;;5104457;28;20039;-79
2023/04/19 02:24:22;;;;;;;0.10;0.10;;;8.70;95.40;;;;;;5085650;28;20528;-78
2023/04/19 02:26:48;;;;;;;1.60;1.50;;;8.80;95.30;;;;;;5105184;28;20024;-79
2023/04/19 02:29:15;;;;;;;0.20;0.20;;;8.80;95.30;;;;;;5105051;27;20023;-79
2023/04/19 02:31:41;;;;;;;1.20;0.45;;;8.70;95.60;;;;;;5097272;28;20055;-81
2023/04/19 02:34:07;;;;;;;0.55;0.55;;;8.70;95.50;;;;;;5105827;28;20038;-79
2023/04/19 02:36:33;;;;;;;0.20;0.20;;;8.60;95.90;;;;;;5086079;28;20167;-80
2023/04/19 02:38:58;;;;;;;0.10;0.10;;;8.50;96.30;;;;;;5086904;28;20027;-79
2023/04/19 02:41:24;;;;;;;0.10;0.10;;;8.40;97.00;;;;;;5101370;28;20090;-79
2023/04/19 02:43:50;;;;;;;0.10;0.10;;;8.30;97.10;;;;;;5105098;28;20104;-79
2023/04/19 02:46:16;;;;;;;0.25;0.25;;;8.20;97.30;;;;;;5105134;28;20830;-81
2023/04/19 02:48:41;;;;;;;0.25;0.25;;;8.20;97.70;;;;;;5105448;28;20577;-79
2023/04/19 02:51:07;;;;;;;0.10;0.10;;;8.10;97.90;;;;;;5085531;28;20093;-78
2023/04/19 02:53:33;;;;;;;3.50;0.85;;;8.10;98.10;;;;;;5095209;28;20031;-79
2023/04/19 02:55:59;;;;;;;2.60;0.68;;;8.10;98.10;;;;;;5103961;28;20490;-79
2023/04/19 02:58:25;;;;;;;0.20;0.20;;;8.10;98.20;;;;;;5086354;27;20030;-78
2023/04/19 03:00:51;;;;;;;1.33;1.30;;;8.10;98.50;;;;;;5089294;28;20067;-79
2023/04/19 03:03:16;;;;;;;0.13;0.13;;;8.10;98.50;;;;;;5076088;28;20776;-79
2023/04/19 03:05:42;;;;;;;0.35;0.35;;;8.10;98.70;;;;;;5104015;28;20130;-80
2023/04/19 03:08:09;;;;;;;0.10;0.10;;;8.00;98.80;;;;;;5080281;27;20398;-79
2023/04/19 03:10:35;;;;;;;0.17;0.17;;;8.00;98.80;;;;;;5104293;28;20107;-79
2023/04/19 03:13:01;;;;;;;0.13;0.13;;;8.00;99.00;;;;;;5103726;27;20046;-78
2023/04/19 03:15:26;;;;;;;0.10;0.10;;;7.90;99.60;;;;;;5102922;28;20553;-79
2023/04/19 03:17:52;;;;;;;0.10;0.10;;;8.00;99.40;;;;;;5093256;28;20038;-79
2023/04/19 03:20:18;;;;;;;0.20;0.20;;;7.90;99.50;;;;;;5102200;28;20024;-78
2023/04/19 03:22:44;;;;;;;0.00;0.00;;;7.80;99.90;;;;;;5102536;28;20031;-80
2023/04/19 03:25:12;;;;;;;0.20;0.20;;;7.80;99.90;;;;;;5104128;28;20101;-80
2023/04/19 03:27:38;;;;;;;0.20;0.20;;;7.70;99.90;;;;;;5104148;27;20133;-80
2023/04/19 03:30:04;;;;;;;0.10;0.10;;;7.60;99.90;;;;;;5103773;27;20050;-80
2023/04/19 03:32:31;;;;;;;0.10;0.10;;;7.60;99.90;;;;;;5100577;28;20052;-79
2023/04/19 03:34:56;;;;;;;0.47;0.47;;;7.50;99.90;;;;;;5103556;28;20023;-77
2023/04/19 03:37:22;;;;;;;0.10;0.10;;;7.50;99.90;;;;;;5084544;28;20031;-77
2023/04/19 03:39:48;;;;;;;0.00;0.00;;;7.40;99.90;;;;;;5103853;28;20043;-77
2023/04/19 03:42:13;;;;;;;0.05;0.05;;;7.40;99.90;;;;;;5102810;28;20038;-76
2023/04/19 03:44:39;;;;;;;0.25;0.25;;;7.30;99.90;;;;;;5103671;28;20033;-77
2023/04/19 03:47:05;;;;;;;0.90;0.85;;;7.30;99.90;;;;;;5103449;28;20019;-78
2023/04/19 03:49:30;;;;;;;0.20;0.20;;;7.20;99.90;;;;;;5103053;28;20452;-78
2023/04/19 03:51:56;;;;;;;0.52;0.52;;;7.20;99.90;;;;;;5084041;28;20049;-78
2023/04/19 03:54:21;;;;;;;0.20;0.20;;;7.20;99.90;;;;;;5085586;28;20031;-77
2023/04/19 03:56:47;;;;;;;0.05;0.05;;;7.10;99.90;;;;;;5101552;28;20024;-78
2023/04/19 03:59:13;;;;;;;0.45;0.45;;;7.20;99.90;;;;;;5099729;28;20103;-78
2023/04/19 04:01:40;;;;;;;0.10;0.10;;;7.10;99.90;;;;;;5103440;28;20089;-77
2023/04/19 04:04:07;;;;;;;0.10;0.10;;;7.10;99.90;;;;;;5103924;28;20047;-77
2023/04/19 04:06:34;;;;;;;0.13;0.13;;;7.00;99.90;;;;;;5107233;27;20046;-78
2023/04/19 04:09:00;;;;;;;9.75;0.75;;;7.10;99.90;;;;;;5084000;28;20028;-77
2023/04/19 04:11:26;;;;;;;0.20;0.20;;;7.10;99.90;;;;;;5084736;28;20035;-79
2023/04/19 04:13:52;;;;;;;0.52;0.43;;;7.00;99.90;;;;;;5084591;28;20756;-78
2023/04/19 04:16:17;;;;;;;0.30;0.30;;;7.10;99.90;;;;;;5084048;28;20149;-77
2023/04/19 04:18:43;;;;;;;0.40;0.40;;;7.10;99.90;;;;;;5102826;28;20102;-77
2023/04/19 04:21:09;;;;;;;0.20;0.20;;;7.20;99.90;;;;;;5100867;28;20253;-77
2023/04/19 04:23:34;;;;;;;0.10;0.10;;;7.10;99.90;;;;;;5092520;28;20082;-77
2023/04/19 04:26:01;;;;;;;0.30;0.30;;;7.00;99.90;;;;;;5077903;28;20165;-76
2023/04/19 04:28:27;;;;;;;0.55;0.50;;;7.10;99.90;;;;;;5102016;28;20609;-77
2023/04/19 04:30:56;;;;;;;0.20;0.20;;;7.00;99.90;;;;;;5101054;28;20504;-76
2023/04/19 04:33:25;;;;;;;0.43;0.43;;;7.00;99.90;;;;;;5102062;28;20038;-79
2023/04/19 04:35:52;;;;;;;0.20;0.20;;;7.00;99.90;;;;;;5083531;28;20308;-81
2023/04/19 04:38:21;;;;;;;0.65;0.40;;;6.90;99.90;;;;;;5066597;28;20020;-79
2023/04/19 04:40:52;;;;;;;0.55;0.43;;;7.00;99.90;;;;;;5079868;28;20035;-79
2023/04/19 04:43:28;;;;;;;0.20;0.20;;;6.80;99.90;;;;;;5067574;28;20038;-77
2023/04/19 04:45:56;;;;;;;0.15;0.15;;;6.90;99.90;;;;;;5094695;28;20035;-78
2023/04/19 04:48:22;;;;;;;0.47;0.47;;;6.80;99.90;;;;;;5114305;28;20089;-79
2023/04/19 04:50:48;;;;;;;0.20;0.20;;;6.80;99.90;;;;;;5102460;28;20031;-77
2023/04/19 04:53:14;;;;;;;0.10;0.10;;;6.80;99.90;;;;;;5083321;28;20031;-77
2023/04/19 04:55:39;;;;;;;0.28;0.20;;;6.80;99.90;;;;;;5102222;28;20039;-77
2023/04/19 04:58:05;;;;;;;0.95;0.65;;;6.80;99.90;;;;;;5073129;28;20028;-77
2023/04/19 05:00:31;;;;;;;0.10;0.10;;;6.80;99.90;;;;;;5100983;28;20482;-78
2023/04/19 05:02:58;;;;;;;0.32;0.32;;;6.80;99.90;;;;;;5083406;28;20032;-78
2023/04/19 05:05:24;;;;;;;0.10;0.10;;;6.80;99.90;;;;;;5095100;28;20020;-78
2023/04/19 05:07:50;;;;;;;0.10;0.10;;;6.70;99.90;;;;;;5087262;28;20600;-79
2023/04/19 05:10:15;;;;;;;0.13;0.13;;;6.70;99.90;;;;;;5105743;28;20023;-79
2023/04/19 05:12:41;;;;;;;0.65;0.30;;;6.70;99.90;;;;;;5089004;28;20043;-78
2023/04/19 05:15:07;;;;;;;0.20;0.20;;;6.70;99.90;;;;;;5087682;27;20039;-77
2023/04/19 05:17:33;;;;;;;0.10;0.10;;;7.00;99.90;;;;;;5101800;27;20779;-77
2023/04/19 05:19:59;;;;;;;0.00;0.00;;;7.70;99.90;;;;;;5084425;28;20028;-77
2023/04/19 05:22:25;;;;;;;0.10;0.10;;;8.20;99.90;;;;;;5086543;28;20028;-76
2023/04/19 05:24:51;;;;;;;0.35;0.35;;;8.40;99.90;;;;;;5106051;28;20811;-78
2023/04/19 05:27:16;;;;;;;0.20;0.20;;;8.40;99.90;;;;;;5086570;28;20101;-79
2023/04/19 05:29:42;;;;;;;0.63;0.55;;;8.50;99.90;;;;;;5106287;28;20063;-77
2023/04/19 05:32:08;;;;;;;0.10;0.10;;;9.10;99.60;;;;;;5103027;28;20071;-77
2023/04/19 05:34:35;;;;;;;0.20;0.20;;;9.60;97.60;;;;;;5110486;27;20081;-77
2023/04/19 05:37:01;;;;;;;;;;;9.90;96.40;;;;;;5105634;28;20044;-79
2023/04/19 05:39:26;;;;;;;0.80;0.80;;;10.30;95.00;;;;;;5105669;28;19994;-79
2023/04/19 05:41:52;;;;;;;0.10;0.10;;;10.50;94.20;;;;;;5083909;28;20038;-77
2023/04/19 05:44:18;;;;;;;0.20;0.20;;;10.80;93.70;;;;;;5105426;28;20024;-77
2023/04/19 05:46:44;;;;;;;0.10;0.10;;;11.30;91.90;;;;;;5105397;28;20475;-79
2023/04/19 05:49:09;;;;;;;0.10;0.10;;;11.40;91.40;;;;;;5086667;28;20027;-78
2023/04/19 05:51:35;;;;;;;0.40;0.40;;;11.60;91.00;;;;;;5074401;28;20552;-78
2023/04/19 05:54:01;;;;;;;0.47;0.47;;;12.00;90.30;;;;;;5104701;27;20031;-80
2023/04/19 05:56:26;;;;;;;0.03;0.03;;;12.20;89.00;;;;;;5105759;28;20035;-78
2023/04/19 05:58:54;;;;;;;0.10;0.10;;;12.30;89.30;;;;;;5106025;28;20482;-77
2023/04/19 06:01:20;;;;;;;0.10;0.10;;;12.70;87.30;;;;;;5104718;27;20068;-79
2023/04/19 06:03:46;;;;;;;0.60;0.60;;;12.80;86.80;;;;;;5105446;28;20054;-81
2023/04/19 06:06:12;;;;;;;0.10;0.10;;;12.90;85.70;;;;;;5105185;28;20044;-78
2023/04/19 06:08:37;;;;;;;0.20;0.20;;;12.90;86.20;;;;;;5104915;28;20020;-77
2023/04/19 06:11:03;;;;;;;0.10;0.10;;;13.20;85.40;;;;;;5106134;28;20058;-76
2023/04/19 06:13:29;;;;;;;0.30;0.30;;;13.20;84.80;;;;;;5106142;28;20011;-76
2023/04/19 06:15:55;;;;;;;0.23;0.23;;;13.30;83.80;;;;;;5105662;28;20024;-77
2023/04/19 06:18:20;;;;;;;0.13;0.13;;;13.70;83.70;;;;;;5106205;28;20111;-81
2023/04/19 06:20:46;;;;;;;0.00;0.00;;;13.90;81.90;;;;;;5102575;28;20515;-80
2023/04/19 06:23:13;;;;;;;0.63;0.60;;;14.00;81.70;;;;;;5105985;28;20490;-78
2023/04/19 06:25:39;;;;;;;0.05;0.05;;;14.20;80.40;;;;;;5086494;28;20020;-76
2023/04/19 06:28:05;;;;;;;0.10;0.10;;;14.60;80.60;;;;;;5105700;28;20122;-79
2023/04/19 06:30:31;;;;;;;0.10;0.10;;;14.80;79.60;;;;;;5117965;27;20031;-80
2023/04/19 06:32:56;;;;;;;2.33;1.20;;;15.20;77.70;;;;;;5110360;27;20783;-80
2023/04/19 06:35:24;;;;;;;0.00;0.00;;;15.50;76.90;;;;;;5098778;28;20500;-78
2023/04/19 06:37:49;;;;;;;0.17;0.17;;;15.80;75.40;;;;;;5103722;28;20023;-79
2023/04/19 06:40:15;;;;;;;0.30;0.30;;;15.90;74.80;;;;;;5096119;28;20023;-79
2023/04/19 06:42:40;;;;;;;0.07;0.07;;;16.10;73.10;;;;;;5083490;28;20035;-78
2023/04/19 06:45:07;;;;;;;0.10;0.10;;;16.50;72.10;;;;;;5116100;27;20020;-81
2023/04/19 06:47:33;;;;;;;0.30;0.30;;;16.20;70.90;;;;;;5096039;28;20063;-77
2023/04/19 06:49:59;;;;;;;0.10;0.10;;;16.60;71.60;;;;;;5110208;27;20032;-77
2023/04/19 06:52:25;;;;;;;0.00;0.00;;;16.50;71.40;;;;;;5094559;28;20386;-77
2023/04/19 06:54:51;;;;;;;0.20;0.20;;;17.00;71.90;;;;;;5085817;28;20028;-84
2023/04/19 06:57:17;;;;;;;0.20;0.20;;;17.20;69.50;;;;;;5095980;28;20297;-83
2023/04/19 06:59:43;;;;;;;0.47;0.47;;;17.40;68.90;;;;;;5091197;27;20252;-78
2023/04/19 07:02:09;;;;;;;0.08;0.08;;;17.80;68.60;;;;;;5093944;28;20043;-79
2023/04/19 07:04:35;;;;;;;0.68;0.28;;;18.50;68.00;;;;;;5089521;28;20051;-79
2023/04/19 07:07:04;;;;;;;0.08;0.08;;;18.80;65.50;;;;;;5083052;28;20035;-79
2023/04/19 07:09:30;;;;;;;0.22;0.22;;;18.20;65.20;;;;;;5091777;27;20029;-79
2023/04/19 07:11:56;;;;;;;0.10;0.10;;;18.80;66.60;;;;;;5121544;27;20039;-79
2023/04/19 07:14:22;;;;;;;0.08;0.08;;;18.50;64.80;;;;;;5096843;28;20058;-80
2023/04/19 07:16:48;;;;;;;0.10;0.10;;;19.10;64.30;;;;;;5083937;28;20036;-80
2023/04/19 07:19:14;;;;;;;0.00;0.00;;;19.70;63.00;;;;;;5091366;28;20757;-78
2023/04/19 07:21:39;;;;;;;0.73;0.73;;;20.10;62.10;;;;;;5083710;28;20036;-80
2023/04/19 07:24:06;;;;;;;0.30;0.30;;;20.20;59.90;;;;;;5093258;27;20151;-80
2023/04/19 07:26:33;;;;;;;0.10;0.10;;;20.40;60.20;;;;;;5096514;28;20038;-78
2023/04/19 07:28:59;;;;;;;;;;;20.80;60.70;;;;;;5095764;28;20074;-79
2023/04/19 07:31:24;;;;;;;;;;;21.30;59.20;;;;;;5074768;28;19969;-79
2023/04/19 07:33:51;;;;;;;1.17;0.35;;;21.20;58.60;;;;;;5097335;28;19911;-79
2023/04/19 07:36:16;;;;;;;0.32;0.32;;;21.90;57.80;;;;;;5103277;28;20067;-79
2023/04/19 07:38:42;;;;;;;0.00;0.00;;;22.30;55.90;;;;;;5103397;28;20031;-80
2023/04/19 07:41:08;;;;;;;0.20;0.20;;;22.20;56.00;;;;;;5103984;28;20026;-80
2023/04/19 07:43:35;;;;;;;0.10;0.10;;;21.90;56.30;;;;;;5086086;28;20059;-80
2023/04/19 07:46:00;;;;;;;0.00;0.00;;;21.90;53.50;;;;;;5096785;28;20032;-79
2023/04/19 07:48:26;;;;;;;0.52;0.52;;;22.40;54.00;;;;;;5095979;28;20035;-80
2023/04/19 07:50:52;;;;;;;0.10;0.10;;;22.70;53.50;;;;;;5097316;28;20102;-81
2023/04/19 07:53:18;;;;;;;0.03;0.03;;;23.00;52.90;;;;;;5094009;28;20107;-79
2023/04/19 07:55:44;;;;;;;0.20;0.20;;;23.70;52.60;;;;;;5096851;28;20092;-79
2023/04/19 07:58:10;;;;;;;0.52;0.25;;;23.90;51.30;;;;;;5085507;28;20035;-78
2023/04/19 08:00:36;;;;;;;0.38;0.20;;;24.40;52.00;;;;;;5084608;28;20721;-79
2023/04/19 08:03:03;;;;;;;0.10;0.10;;;24.80;50.30;;;;;;5090884;28;20038;-77
2023/04/19 08:05:30;;;;;;;0.00;0.00;;;24.80;49.50;;;;;;5095558;28;20107;-78
2023/04/19 08:07:55;;;;;;;0.00;0.00;;;25.00;48.30;;;;;;5093316;28;20080;-78
2023/04/19 08:10:21;;;;;;;0.03;0.03;;;25.70;48.70;;;;;;5101781;28;20050;-76
2023/04/19 08:12:48;;;;;;;0.10;0.10;;;25.00;46.70;;;;;;5090903;28;20131;-76
2023/04/19 08:15:14;;;;;;;0.00;0.00;;;26.50;48.40;;;;;;5084781;28;20410;-77
2023/04/19 08:17:43;;;;;;;0.00;0.00;;;25.50;45.30;;;;;;5085409;28;20085;-76
2023/04/19 08:20:13;;;;;;;0.00;0.00;;;26.10;46.80;;;;;;5091856;28;20050;-76
2023/04/19 08:22:39;;;;;;;0.47;0.47;;;25.30;45.70;;;;;;5084446;28;20043;-80
2023/04/19 08:25:06;;;;;;;;;;;26.10;45.30;;;;;;5095102;28;20063;-75
2023/04/19 08:27:31;;;;;;;0.13;0.13;;;26.50;44.00;;;;;;5100802;28;19998;-79
2023/04/19 08:29:57;;;;;;;0.00;0.00;;;26.10;44.10;;;;;;5104733;28;20532;-79
2023/04/19 08:32:23;;;;;;;0.00;0.00;;;27.80;42.30;;;;;;5079262;28;20058;-79
2023/04/19 08:34:48;;;;;;;0.00;0.00;;;28.50;41.10;;;;;;5091394;28;20023;-79
2023/04/19 08:37:14;;;;;;;0.32;0.32;;;26.80;43.00;;;;;;5104568;28;20084;-82
2023/04/19 08:39:40;;;;;;;0.00;0.00;;;26.20;41.10;;;;;;5098123;28;20128;-79
2023/04/19 08:42:07;;;;;;;0.00;0.00;;;24.70;44.80;;;;;;5100674;28;21080;-78
2023/04/19 08:44:36;;;;;;;0.40;0.28;;;26.70;41.50;;;;;;5101508;28;20024;-78
2023/04/19 08:47:03;;;;;;;0.00;0.00;;;26.40;41.20;;;;;;5098139;28;20031;-78
2023/04/19 08:49:30;;;;;;;0.00;0.00;;;26.00;42.80;;;;;;5103194;28;20031;-78
2023/04/19 08:52:00;;;;;;;0.00;0.00;;;26.70;41.60;;;;;;5096901;28;20038;-79
2023/04/19 08:54:28;;;;;;;0.00;0.00;;;27.30;40.90;;;;;;5079190;28;20032;-79
2023/04/19 08:56:57;;;;;;;0.20;0.20;;;28.70;40.70;;;;;;5089211;28;20576;-79
2023/04/19 08:59:22;;;;;;;0.00;0.00;;;29.50;40.80;;;;;;5097707;27;20158;-79
2023/04/19 09:01:49;;;;;;;0.00;0.00;;;29.80;39.00;;;;;;5123110;27;20168;-79
2023/04/19 09:04:14;;;;;;;0.20;0.20;;;27.40;40.90;;;;;;5098864;27;20036;-79
2023/04/19 09:06:40;;;;;;;0.22;0.22;;;27.20;39.90;;;;;;5089343;28;20039;-79
2023/04/19 09:09:17;;;;;;;0.10;0.10;;;26.60;41.00;;;;;;5085518;28;20036;-78
2023/04/19 09:11:43;;;;;;;0.00;0.00;;;25.70;41.40;;;;;;5092348;27;20035;-79
2023/04/19 09:14:11;;;;;;;0.00;0.00;;;26.60;41.30;;;;;;5105424;28;20024;-78
2023/04/19 09:16:38;;;;;;;0.10;0.10;;;26.30;41.10;;;;;;5097883;28;20862;-77
2023/04/19 09:19:04;;;;;;;0.00;0.00;;;27.00;41.30;;;;;;5092982;28;20028;-78
2023/04/19 09:21:31;;;;;;;0.00;0.00;;;28.40;39.30;;;;;;5098933;27;20601;-79
2023/04/19 09:23:58;;;;;;;0.00;0.00;;;27.10;39.70;;;;;;5105481;27;20119;-78
2023/04/19 09:26:28;;;;;;;0.10;0.10;;;28.20;39.30;;;;;;5089897;28;20032;-79
2023/04/19 09:29:20;;;;;;;0.05;0.05;;;28.80;40.60;;;;;;5098192;28;20495;-78
2023/04/19 09:31:58;;;;;;;0.00;0.00;;;28.70;37.20;;;;;;5095046;28;20051;-78
2023/04/19 09:34:24;;;;;;;0.00;0.00;;;28.00;38.10;;;;;;5103904;28;20019;-78
2023/04/19 09:36:50;;;;;;;0.77;0.55;;;28.40;38.90;;;;;;5082236;28;20638;-79
2023/04/19 09:39:30;;;;;;;0.13;0.13;;;28.20;38.40;;;;;;5101315;27;20020;-77
2023/04/19 09:41:57;;;;;;;0.20;0.17;;;29.50;39.30;;;;;;5103054;28;20771;-77
2023/04/19 09:44:22;;;;;;;;;;;29.10;38.10;;;;;;5106922;28;20389;-79
2023/04/19 09:46:50;;;;;;;0.10;0.10;;;29.70;37.90;;;;;;5100540;27;19907;-78
2023/04/19 09:49:19;;;;;;;0.30;0.30;;;29.30;36.80;;;;;;5099032;27;20512;-77
2023/04/19 09:51:50;;;;;;;0.03;0.03;;;27.80;38.30;;;;;;5077043;28;20039;-79
2023/04/19 09:54:18;;;;;;;0.00;0.00;;;30.00;36.70;;;;;;5098048;27;20049;-77
2023/04/19 09:56:44;;;;;;;0.00;0.00;;;29.40;36.40;;;;;;5088538;28;20032;-78
2023/04/19 09:59:11;;;;;;;0.22;0.17;;;29.10;36.70;;;;;;5100339;28;20549;-80
2023/04/19 10:01:47;;;;;;;0.52;0.40;;;31.10;36.10;;;;;;5088364;28;20113;-78
2023/04/19 10:04:21;;;;;;;0.22;0.22;;;31.10;36.90;;;;;;5098409;28;20020;-79
2023/04/19 10:06:50;;;;;;;0.32;0.32;;;27.00;37.70;;;;;;5091978;28;20032;-77
2023/04/19 10:09:20;;;;;;;0.08;0.08;;;27.60;37.50;;;;;;5094616;28;20685;-78
2023/04/19 10:11:50;;;;;;;0.10;0.10;;;27.90;37.00;;;;;;5095222;28;20044;-78
2023/04/19 10:14:22;;;;;;;0.10;0.10;;;27.50;37.40;;;;;;5083769;28;20024;-78
2023/04/19 10:16:48;;;;;;;0.10;0.10;;;28.30;36.80;;;;;;5099881;28;20482;-80
2023/04/19 10:19:19;;;;;;;0.25;0.25;;;26.70;37.50;;;;;;5087130;28;20020;-79
2023/04/19 10:21:47;;;;;;;0.00;0.00;;;25.20;38.00;;;;;;5086689;28;20036;-84
2023/04/19 10:24:14;;;;;;;0.20;0.20;;;24.50;39.90;;;;;;5105297;28;20084;-81
2023/04/19 10:27:12;;;;;;;0.00;0.00;;;24.60;41.50;;;;;;5099136;28;20482;-81
2023/04/19 10:30:02;;;;;;;0.38;0.20;;;24.40;41.80;;;;;;5099014;28;20027;-81
2023/04/19 10:32:39;;;;;;;0.10;0.10;;;24.30;42.20;;;;;;5093981;28;20497;-77
2023/04/19 10:35:15;;;;;;;0.08;0.08;;;22.90;44.30;;;;;;5092731;28;20054;-77
2023/04/19 10:38:00;;;;;;;0.30;0.28;;;23.20;44.40;;;;;;5084182;27;21110;-81
2023/04/19 10:40:55;;;;;;;0.13;0.13;;;22.90;42.70;;;;;;5086363;28;20031;-85
2023/04/19 10:43:26;;;;;;;0.08;0.08;;;22.50;44.50;;;;;;5095579;28;20039;-84
2023/04/19 10:45:52;;;;;;;0.10;0.10;;;22.90;43.00;;;;;;5076531;28;20028;-85
2023/04/19 10:48:31;;;;;;;0.00;0.00;;;22.60;43.20;;;;;;5090624;28;20027;-86
2023/04/19 10:51:02;;;;;;;0.10;0.10;;;22.90;42.60;;;;;;5091602;28;20020;-86
2023/04/19 10:53:49;;;;;;;0.00;0.00;;;22.50;43.00;;;;;;5091736;28;20146;-84
2023/04/19 10:56:20;;;;;;;0.05;0.05;;;22.20;43.00;;;;;;5103362;28;20710;-83
2023/04/19 10:59:03;;;;;;;0.10;0.10;;;22.40;42.10;;;;;;5085450;28;20024;-85
2023/04/19 11:01:42;;;;;;;0.10;0.10;;;22.40;41.20;;;;;;5086649;28;20039;-84
2023/04/19 11:04:15;;;;;;;0.08;0.08;;;21.90;41.10;;;;;;5100188;27;20101;-84
2023/04/19 11:06:50;;;;;;;0.20;0.20;;;22.00;45.60;;;;;;5093771;28;20055;-84
2023/04/19 11:09:22;;;;;;;0.15;0.15;;;21.60;45.50;;;;;;5097897;28;20844;-84
2023/04/19 11:11:48;;;;;;;0.10;0.10;;;21.90;46.00;;;;;;5080935;28;20036;-84
2023/04/19 11:14:15;;;;;;;2.60;0.40;;;21.90;45.10;;;;;;5095693;28;20054;-84
2023/04/19 11:16:41;;;;;;;0.00;0.00;;;22.00;42.90;;;;;;5088056;28;20265;-86
2023/04/19 11:19:07;;;;;;;0.00;0.00;;;21.80;47.70;;;;;;5083437;28;20022;-86
2023/04/19 11:21:37;;;;;;;0.30;0.10;;;22.00;46.90;;;;;;5098965;27;20043;-85
2023/04/19 11:24:07;;;;;;;0.00;0.00;;;22.00;44.50;;;;;;5079923;28;20084;-86
2023/04/19 11:26:33;;;;;;;0.00;0.00;;;21.90;43.40;;;;;;5082779;28;20034;-86
2023/04/19 11:28:59;;;;;;;0.10;0.10;;;21.40;42.30;;;;;;5088512;28;20023;-85
2023/04/19 11:31:26;;;;;;;0.40;0.40;;;21.10;43.30;;;;;;5074108;28;20065;-86
2023/04/19 11:33:52;;;;;;;1.00;0.57;;;21.00;43.00;;;;;;5072631;28;20039;-85
2023/04/19 11:36:17;;;;;;;0.08;0.08;;;21.20;44.60;;;;;;5095305;28;20039;-86
2023/04/19 11:38:47;;;;;;;0.00;0.00;;;21.30;46.50;;;;;;5089405;28;20028;-88
2023/04/19 11:41:13;;;;;;;0.00;0.00;;;20.80;45.10;;;;;;5073128;28;20030;-85
2023/04/19 11:43:40;;;;;;;0.10;0.10;;;20.80;45.30;;;;;;5086635;28;20020;-89
2023/04/19 11:46:07;;;;;;;0.00;0.00;;;20.80;44.30;;;;;;5093027;27;20069;-89
2023/04/19 11:48:33;;;;;;;0.00;0.00;;;20.90;45.20;;;;;;5101524;27;20100;-85
2023/04/19 11:50:59;;;;;;;0.00;0.00;;;20.60;43.10;;;;;;5090940;28;20032;-83
2023/04/19 11:53:26;;;;;;;;;;;20.70;46.60;;;;;;5081617;28;20398;-82
2023/04/19 11:56:02;;;;;;;0.20;0.20;;;21.00;48.50;;;;;;5086962;27;19911;-82
2023/04/19 11:58:48;;;;;;;0.00;0.00;;;21.00;45.60;;;;;;5103554;28;20058;-82
2023/04/19 12:01:21;;;;;;;2.33;0.35;;;20.80;45.30;;;;;;5074225;28;20027;-82
2023/04/19 12:03:51;;;;;;;0.00;0.00;;;20.90;45.80;;;;;;5102235;28;20027;-83
2023/04/19 12:06:25;;;;;;;0.00;0.00;;;21.00;43.20;;;;;;5084152;28;20023;-82
2023/04/19 12:08:52;;;;;;;0.10;0.10;;;21.10;43.10;;;;;;5081527;28;20069;-82
2023/04/19 12:11:21;;;;;;;0.00;0.00;;;21.00;44.60;;;;;;5103149;28;20031;-82
2023/04/19 12:13:48;;;;;;;0.00;0.00;;;20.90;48.00;;;;;;5080728;28;20131;-82
2023/04/19 12:16:14;;;;;;;0.00;0.00;;;20.70;43.20;;;;;;5094354;27;20019;-82
2023/04/19 12:18:50;;;;;;;0.23;0.23;;;20.90;46.50;;;;;;5073293;28;20406;-82
2023/04/19 12:21:26;;;;;;;0.00;0.00;;;20.80;45.20;;;;;;5097491;28;20028;-82
2023/04/19 12:23:53;;;;;;;;;;;20.70;43.20;;;;;;5076884;28;20031;-82
2023/04/19 12:26:18;;;;;;;0.25;0.25;;;20.60;47.40;;;;;;5092748;28;20362;-82
2023/04/19 12:28:44;;;;;;;0.10;0.10;;;20.60;45.90;;;;;;5091013;28;20073;-82
2023/04/19 12:31:10;;;;;;;0.10;0.10;;;20.60;43.40;;;;;;5072366;28;20063;-82
2023/04/19 12:33:36;;;;;;;0.00;0.00;;;20.60;48.80;;;;;;5087574;28;20051;-83
2023/04/19 12:36:02;;;;;;;0.13;0.13;;;20.50;43.80;;;;;;5099585;28;20039;-82
2023/04/19 12:38:28;;;;;;;0.00;0.00;;;20.60;45.60;;;;;;5100423;28;20035;-82
2023/04/19 12:40:54;;;;;;;0.37;0.37;;;20.80;44.50;;;;;;5091331;28;20032;-83
2023/04/19 12:43:20;;;;;;;0.00;0.00;;;20.50;41.80;;;;;;5101016;28;20038;-82
2023/04/19 12:45:45;;;;;;;0.00;0.00;;;20.60;42.20;;;;;;5092332;28;20025;-82
2023/04/19 12:48:11;;;;;;;0.00;0.00;;;20.80;41.00;;;;;;5098320;28;20119;-82
2023/04/19 12:50:37;;;;;;;0.13;0.13;;;20.90;44.90;;;;;;5086670;28;20513;-82
2023/04/19 12:53:03;;;;;;;0.10;0.10;;;20.70;44.80;;;;;;5094493;28;20032;-83